sensor_id;sensor_type;location;lat;lon;timestamp;pressure;altitude;pressure_sealevel;temperature
53512;BMP280;39392;52.832;13.816;2022-11-23T00:01:20;100211.03;;;18.62
53512;BMP280;39392;52.832;13.816;2022-11-23T00:03:47;100206.63;;;18.61
53512;BMP280;39392;52.832;13.816;2022-11-23T00:06:14;100208.50;;;18.61
53512;BMP280;39392;52.832;13.816;2022-11-23T00:08:41;100206.78;;;18.60
53512;BMP280;39392;52.832;13.816;2022-11-23T00:11:07;100214.28;;;18.58
53512;BMP280;39392;52.832;13.816;2022-11-23T00:13:34;100211.38;;;18.59
53512;BMP280;39392;52.832;13.816;2022-11-23T00:16:08;100206.16;;;18.58
53512;BMP280;39392;52.832;13.816;2022-11-23T00:18:35;100214.28;;;18.58
53512;BMP280;39392;52.832;13.816;2022-11-23T00:21:05;100209.06;;;18.56
53512;BMP280;39392;52.832;13.816;2022-11-23T00:23:32;100203.63;;;18.56
53512;BMP280;39392;52.832;13.816;2022-11-23T00:25:59;100202.13;;;18.54
53512;BMP280;39392;52.832;13.816;2022-11-23T00:28:25;100207.56;;;18.54
53512;BMP280;39392;52.832;13.816;2022-11-23T00:30:52;100198.56;;;18.53
53512;BMP280;39392;52.832;13.816;2022-11-23T00:33:18;100197.75;;;18.53
53512;BMP280;39392;52.832;13.816;2022-11-23T00:35:45;100177.22;;;18.50
53512;BMP280;39392;52.832;13.816;2022-11-23T00:38:11;100179.09;;;18.50
53512;BMP280;39392;52.832;13.816;2022-11-23T00:40:38;100182.66;;;18.50
53512;BMP280;39392;52.832;13.816;2022-11-23T00:43:04;100175.75;;;18.48
53512;BMP280;39392;52.832;13.816;2022-11-23T00:45:30;100186.78;;;18.46
53512;BMP280;39392;52.832;13.816;2022-11-23T00:47:57;100188.66;;;18.46
53512;BMP280;39392;52.832;13.816;2022-11-23T00:50:23;100192.41;;;18.45
53512;BMP280;39392;52.832;13.816;2022-11-23T00:52:50;100189.84;;;18.43
53512;BMP280;39392;52.832;13.816;2022-11-23T00:55:16;100196.31;;;18.42
53512;BMP280;39392;52.832;13.816;2022-11-23T00:57:43;100200.91;;;18.41
53512;BMP280;39392;52.832;13.816;2022-11-23T01:00:09;100200.06;;;18.41
53512;BMP280;39392;52.832;13.816;2022-11-23T01:02:37;100208.19;;;18.41
53512;BMP280;39392;52.832;13.816;2022-11-23T01:05:04;100203.81;;;18.40
53512;BMP280;39392;52.832;13.816;2022-11-23T01:07:30;100218.22;;;18.40
53512;BMP280;39392;52.832;13.816;2022-11-23T01:09:57;100216.34;;;18.41
53512;BMP280;39392;52.832;13.816;2022-11-23T01:12:24;100213.81;;;18.39
53512;BMP280;39392;52.832;13.816;2022-11-23T01:14:51;100222.13;;;18.38
53512;BMP280;39392;52.832;13.816;2022-11-23T01:17:18;100228.59;;;18.37
53512;BMP280;39392;52.832;13.816;2022-11-23T01:19:44;100224.19;;;18.36
53512;BMP280;39392;52.832;13.816;2022-11-23T01:22:11;100224.69;;;18.39
53512;BMP280;39392;52.832;13.816;2022-11-23T01:24:37;100225.31;;;18.41
53512;BMP280;39392;52.832;13.816;2022-11-23T01:27:03;100226.16;;;18.42
53512;BMP280;39392;52.832;13.816;2022-11-23T01:29:30;100221.56;;;18.42
53512;BMP280;39392;52.832;13.816;2022-11-23T01:31:57;100211.56;;;18.43
53512;BMP280;39392;52.832;13.816;2022-11-23T01:34:23;100218.84;;;18.42
53512;BMP280;39392;52.832;13.816;2022-11-23T01:36:50;100214.47;;;18.41
53512;BMP280;39392;52.832;13.816;2022-11-23T01:39:16;100210.91;;;18.41
53512;BMP280;39392;52.832;13.816;2022-11-23T01:41:43;100202.97;;;18.39
53512;BMP280;39392;52.832;13.816;2022-11-23T01:44:29;100211.28;;;18.38
53512;BMP280;39392;52.832;13.816;2022-11-23T01:46:56;100215.03;;;18.37
53512;BMP280;39392;52.832;13.816;2022-11-23T01:49:23;100209.78;;;18.35
53512;BMP280;39392;52.832;13.816;2022-11-23T01:51:51;100219.78;;;18.35
53512;BMP280;39392;52.832;13.816;2022-11-23T01:56:50;100233.34;;;18.35
53512;BMP280;39392;52.832;13.816;2022-11-23T01:59:18;100240.63;;;18.34
53512;BMP280;39392;52.832;13.816;2022-11-23T02:01:46;100236.91;;;18.35
53512;BMP280;39392;52.832;13.816;2022-11-23T02:04:22;100228.78;;;18.35
53512;BMP280;39392;52.832;13.816;2022-11-23T02:06:50;100246.91;;;18.35
53512;BMP280;39392;52.832;13.816;2022-11-23T02:09:17;100248.63;;;18.36
53512;BMP280;39392;52.832;13.816;2022-11-23T02:11:45;100236.06;;;18.35
53512;BMP280;39392;52.832;13.816;2022-11-23T02:14:11;100245.91;;;18.36
53512;BMP280;39392;52.832;13.816;2022-11-23T02:16:38;100238.97;;;18.33
53512;BMP280;39392;52.832;13.816;2022-11-23T02:19:07;100244.19;;;18.35
53512;BMP280;39392;52.832;13.816;2022-11-23T02:21:36;100236.25;;;18.33
53512;BMP280;39392;52.832;13.816;2022-11-23T02:24:04;100236.25;;;18.33
53512;BMP280;39392;52.832;13.816;2022-11-23T02:26:34;100227.28;;;18.33
53512;BMP280;39392;52.832;13.816;2022-11-23T02:29:02;100228.31;;;18.32
53512;BMP280;39392;52.832;13.816;2022-11-23T02:31:31;100227.47;;;18.31
53512;BMP280;39392;52.832;13.816;2022-11-23T02:33:57;100228.47;;;18.30
53512;BMP280;39392;52.832;13.816;2022-11-23T02:38:57;100229.88;;;18.26
53512;BMP280;39392;52.832;13.816;2022-11-23T02:41:25;100233.44;;;18.27
53512;BMP280;39392;52.832;13.816;2022-11-23T02:43:53;100226.16;;;18.27
53512;BMP280;39392;52.832;13.816;2022-11-23T02:46:21;100227.00;;;18.28
53512;BMP280;39392;52.832;13.816;2022-11-23T02:48:48;100226.31;;;18.26
53512;BMP280;39392;52.832;13.816;2022-11-23T02:51:14;100230.72;;;18.27
53512;BMP280;39392;52.832;13.816;2022-11-23T02:53:40;100224.16;;;18.21
53512;BMP280;39392;52.832;13.816;2022-11-23T02:56:07;100226.31;;;18.26
53512;BMP280;39392;52.832;13.816;2022-11-23T02:58:33;100230.06;;;18.25
53512;BMP280;39392;52.832;13.816;2022-11-23T03:01:00;100229.56;;;18.21
53512;BMP280;39392;52.832;13.816;2022-11-23T03:03:26;100239.22;;;18.24
53512;BMP280;39392;52.832;13.816;2022-11-23T03:05:53;100241.09;;;18.23
53512;BMP280;39392;52.832;13.816;2022-11-23T03:08:19;100243.81;;;18.23
53512;BMP280;39392;52.832;13.816;2022-11-23T03:10:46;100246.53;;;18.23
53512;BMP280;39392;52.832;13.816;2022-11-23T03:13:12;100241.94;;;18.24
53512;BMP280;39392;52.832;13.816;2022-11-23T03:15:39;100247.72;;;18.21
53512;BMP280;39392;52.832;13.816;2022-11-23T03:18:05;100242.09;;;18.22
53512;BMP280;39392;52.832;13.816;2022-11-23T03:20:32;100246.69;;;18.22
53512;BMP280;39392;52.832;13.816;2022-11-23T03:22:58;100250.25;;;18.22
53512;BMP280;39392;52.832;13.816;2022-11-23T03:25:25;100242.09;;;18.22
53512;BMP280;39392;52.832;13.816;2022-11-23T03:27:51;100243.13;;;18.21
53512;BMP280;39392;52.832;13.816;2022-11-23T03:30:18;100254.00;;;18.21
53512;BMP280;39392;52.832;13.816;2022-11-23T03:32:44;100241.47;;;18.20
53512;BMP280;39392;52.832;13.816;2022-11-23T03:35:11;100249.59;;;18.20
53512;BMP280;39392;52.832;13.816;2022-11-23T03:37:37;100250.44;;;18.21
53512;BMP280;39392;52.832;13.816;2022-11-23T03:40:04;100241.66;;;18.19
53512;BMP280;39392;52.832;13.816;2022-11-23T03:42:30;100239.94;;;18.17
53512;BMP280;39392;52.832;13.816;2022-11-23T03:44:57;100236.41;;;18.17
53512;BMP280;39392;52.832;13.816;2022-11-23T03:47:23;100241.81;;;18.17
53512;BMP280;39392;52.832;13.816;2022-11-23T03:49:50;100238.28;;;18.16
53512;BMP280;39392;52.832;13.816;2022-11-23T03:52:16;100230.31;;;18.15
53512;BMP280;39392;52.832;13.816;2022-11-23T03:54:43;100234.03;;;18.14
53512;BMP280;39392;52.832;13.816;2022-11-23T03:57:09;100226.94;;;18.13
53512;BMP280;39392;52.832;13.816;2022-11-23T03:59:35;100229.66;;;18.13
53512;BMP280;39392;52.832;13.816;2022-11-23T04:02:02;100227.78;;;18.13
53512;BMP280;39392;52.832;13.816;2022-11-23T04:04:28;100234.22;;;18.12
53512;BMP280;39392;52.832;13.816;2022-11-23T04:06:55;100234.03;;;18.14
53512;BMP280;39392;52.832;13.816;2022-11-23T04:09:21;100233.19;;;18.13
53512;BMP280;39392;52.832;13.816;2022-11-23T04:11:48;100229.66;;;18.13
53512;BMP280;39392;52.832;13.816;2022-11-23T04:14:15;100234.03;;;18.14
53512;BMP280;39392;52.832;13.816;2022-11-23T04:16:41;100238.63;;;18.13
53512;BMP280;39392;52.832;13.816;2022-11-23T04:19:08;100237.78;;;18.13
53512;BMP280;39392;52.832;13.816;2022-11-23T04:21:34;100242.38;;;18.12
53512;BMP280;39392;52.832;13.816;2022-11-23T04:24:01;100241.34;;;18.13
53512;BMP280;39392;52.832;13.816;2022-11-23T04:26:27;100245.91;;;18.13
53512;BMP280;39392;52.832;13.816;2022-11-23T04:28:54;100249.47;;;18.13
53512;BMP280;39392;52.832;13.816;2022-11-23T04:31:20;100245.75;;;18.14
53512;BMP280;39392;52.832;13.816;2022-11-23T04:33:47;100243.88;;;18.15
53512;BMP280;39392;52.832;13.816;2022-11-23T04:36:13;100243.88;;;18.15
53512;BMP280;39392;52.832;13.816;2022-11-23T04:38:39;100240.34;;;18.14
53512;BMP280;39392;52.832;13.816;2022-11-23T04:41:06;100245.75;;;18.14
53512;BMP280;39392;52.832;13.816;2022-11-23T04:43:32;100243.22;;;18.13
53512;BMP280;39392;52.832;13.816;2022-11-23T04:45:59;100243.22;;;18.13
53512;BMP280;39392;52.832;13.816;2022-11-23T04:48:25;100239.66;;;18.12
53512;BMP280;39392;52.832;13.816;2022-11-23T04:50:52;100240.69;;;18.11
53512;BMP280;39392;52.832;13.816;2022-11-23T04:53:21;100242.56;;;18.11
53512;BMP280;39392;52.832;13.816;2022-11-23T04:55:47;100257.81;;;18.12
53512;BMP280;39392;52.832;13.816;2022-11-23T04:58:14;100253.41;;;18.11
53512;BMP280;39392;52.832;13.816;2022-11-23T05:00:40;100252.38;;;18.12
53512;BMP280;39392;52.832;13.816;2022-11-23T05:03:07;100253.22;;;18.12
53512;BMP280;39392;52.832;13.816;2022-11-23T05:05:35;100250.50;;;18.12
53512;BMP280;39392;52.832;13.816;2022-11-23T05:08:02;100249.84;;;18.10
53512;BMP280;39392;52.832;13.816;2022-11-23T05:10:28;100255.28;;;18.10
53512;BMP280;39392;52.832;13.816;2022-11-23T05:12:55;100249.19;;;18.08
53512;BMP280;39392;52.832;13.816;2022-11-23T05:15:21;100252.94;;;18.07
53512;BMP280;39392;52.832;13.816;2022-11-23T05:17:47;100255.63;;;18.07
53512;BMP280;39392;52.832;13.816;2022-11-23T05:20:14;100256.66;;;18.06
53512;BMP280;39392;52.832;13.816;2022-11-23T05:22:41;100258.53;;;18.06
53512;BMP280;39392;52.832;13.816;2022-11-23T05:25:07;100258.53;;;18.06
53512;BMP280;39392;52.832;13.816;2022-11-23T05:27:34;100255.63;;;18.07
53512;BMP280;39392;52.832;13.816;2022-11-23T05:30:01;100250.22;;;18.07
53512;BMP280;39392;52.832;13.816;2022-11-23T05:32:28;100255.44;;;18.09
53512;BMP280;39392;52.832;13.816;2022-11-23T05:34:54;100243.75;;;18.08
53512;BMP280;39392;52.832;13.816;2022-11-23T05:37:21;100237.69;;;18.06
53512;BMP280;39392;52.832;13.816;2022-11-23T05:39:47;100239.72;;;18.04
53512;BMP280;39392;52.832;13.816;2022-11-23T05:42:13;100245.16;;;18.04
53512;BMP280;39392;52.832;13.816;2022-11-23T05:44:40;100244.50;;;18.02
53512;BMP280;39392;52.832;13.816;2022-11-23T05:47:06;100238.25;;;18.02
53512;BMP280;39392;52.832;13.816;2022-11-23T05:49:33;100246.38;;;18.02
53512;BMP280;39392;52.832;13.816;2022-11-23T05:52:00;100245.50;;;18.01
53512;BMP280;39392;52.832;13.816;2022-11-23T05:54:26;100255.34;;;18.02
53512;BMP280;39392;52.832;13.816;2022-11-23T05:56:53;100250.09;;;18.01
53512;BMP280;39392;52.832;13.816;2022-11-23T05:59:19;100250.09;;;18.01
53512;BMP280;39392;52.832;13.816;2022-11-23T06:01:46;100256.53;;;18.00
53512;BMP280;39392;52.832;13.816;2022-11-23T06:04:12;100259.25;;;18.00
53512;BMP280;39392;52.832;13.816;2022-11-23T06:06:39;100262.16;;;17.98
53512;BMP280;39392;52.832;13.816;2022-11-23T06:09:06;100259.44;;;17.98
53512;BMP280;39392;52.832;13.816;2022-11-23T06:11:32;100260.28;;;17.99
53512;BMP280;39392;52.832;13.816;2022-11-23T06:14:00;100253.00;;;17.99
53512;BMP280;39392;52.832;13.816;2022-11-23T06:16:26;100253.00;;;17.99
53512;BMP280;39392;52.832;13.816;2022-11-23T06:18:53;100257.56;;;17.99
53512;BMP280;39392;52.832;13.816;2022-11-23T06:21:19;100259.44;;;17.98
53512;BMP280;39392;52.832;13.816;2022-11-23T06:23:46;100262.31;;;17.97
53512;BMP280;39392;52.832;13.816;2022-11-23T06:26:13;100263.16;;;17.97
53512;BMP280;39392;52.832;13.816;2022-11-23T06:28:39;100273.84;;;17.99
53512;BMP280;39392;52.832;13.816;2022-11-23T06:31:06;100265.03;;;17.97
53512;BMP280;39392;52.832;13.816;2022-11-23T06:33:33;100262.31;;;17.97
53512;BMP280;39392;52.832;13.816;2022-11-23T06:36:00;100260.63;;;17.96
53512;BMP280;39392;52.832;13.816;2022-11-23T06:38:26;100278.59;;;17.97
53512;BMP280;39392;52.832;13.816;2022-11-23T06:40:56;100272.31;;;17.96
53512;BMP280;39392;52.832;13.816;2022-11-23T06:43:24;100275.03;;;17.96
53512;BMP280;39392;52.832;13.816;2022-11-23T06:45:50;100269.81;;;17.95
53512;BMP280;39392;52.832;13.816;2022-11-23T06:48:17;100277.75;;;17.96
53512;BMP280;39392;52.832;13.816;2022-11-23T06:50:43;100270.66;;;17.95
53512;BMP280;39392;52.832;13.816;2022-11-23T06:53:10;100273.34;;;17.95
53512;BMP280;39392;52.832;13.816;2022-11-23T06:55:39;100275.38;;;17.93
53512;BMP280;39392;52.832;13.816;2022-11-23T06:58:06;100279.13;;;17.92
53512;BMP280;39392;52.832;13.816;2022-11-23T07:00:32;100293.72;;;17.91
53512;BMP280;39392;52.832;13.816;2022-11-23T07:02:59;100283.91;;;17.90
53512;BMP280;39392;52.832;13.816;2022-11-23T07:05:26;100285.78;;;17.89
53512;BMP280;39392;52.832;13.816;2022-11-23T07:07:53;100282.72;;;17.84
53512;BMP280;39392;52.832;13.816;2022-11-23T07:10:19;100286.78;;;17.88
53512;BMP280;39392;52.832;13.816;2022-11-23T07:12:45;100294.91;;;17.88
53512;BMP280;39392;52.832;13.816;2022-11-23T07:15:12;100291.19;;;17.89
53512;BMP280;39392;52.832;13.816;2022-11-23T07:17:39;100296.63;;;17.89
53512;BMP280;39392;52.832;13.816;2022-11-23T07:20:09;100301.84;;;17.91
53512;BMP280;39392;52.832;13.816;2022-11-23T07:22:36;100303.88;;;17.89
53512;BMP280;39392;52.832;13.816;2022-11-23T07:25:03;100304.06;;;17.87
53512;BMP280;39392;52.832;13.816;2022-11-23T07:27:30;100302.94;;;17.82
53512;BMP280;39392;52.832;13.816;2022-11-23T07:29:56;100317.88;;;17.78
53512;BMP280;39392;52.832;13.816;2022-11-23T07:32:22;100312.94;;;17.73
53512;BMP280;39392;52.832;13.816;2022-11-23T07:34:49;100314.13;;;17.71
53512;BMP280;39392;52.832;13.816;2022-11-23T07:37:15;100321.25;;;17.72
53512;BMP280;39392;52.832;13.816;2022-11-23T07:39:42;100311.63;;;17.69
53512;BMP280;39392;52.832;13.816;2022-11-23T07:42:23;100314.13;;;17.71
53512;BMP280;39392;52.832;13.816;2022-11-23T07:45:05;100317.88;;;17.70
53512;BMP280;39392;52.832;13.816;2022-11-23T07:47:31;100317.03;;;17.69
53512;BMP280;39392;52.832;13.816;2022-11-23T07:49:58;100334.97;;;17.70
53512;BMP280;39392;52.832;13.816;2022-11-23T07:52:25;100330.22;;;17.72
53512;BMP280;39392;52.832;13.816;2022-11-23T07:54:51;100327.50;;;17.72
53512;BMP280;39392;52.832;13.816;2022-11-23T07:57:17;100334.47;;;17.75
53512;BMP280;39392;52.832;13.816;2022-11-23T07:59:44;100326.34;;;17.75
53512;BMP280;39392;52.832;13.816;2022-11-23T08:02:14;100333.63;;;17.74
53512;BMP280;39392;52.832;13.816;2022-11-23T08:04:41;100329.22;;;17.73
53512;BMP280;39392;52.832;13.816;2022-11-23T08:07:07;100333.94;;;17.71
53512;BMP280;39392;52.832;13.816;2022-11-23T08:09:34;100333.94;;;17.71
53512;BMP280;39392;52.832;13.816;2022-11-23T08:12:00;100343.09;;;17.70
53512;BMP280;39392;52.832;13.816;2022-11-23T08:14:27;100331.44;;;17.70
53512;BMP280;39392;52.832;13.816;2022-11-23T08:16:53;100334.78;;;17.72
53512;BMP280;39392;52.832;13.816;2022-11-23T08:19:20;100337.69;;;17.70
53512;BMP280;39392;52.832;13.816;2022-11-23T08:21:46;100345.13;;;17.68
53512;BMP280;39392;52.832;13.816;2022-11-23T08:24:13;100339.91;;;17.66
53512;BMP280;39392;52.832;13.816;2022-11-23T08:26:39;100336.34;;;17.66
53512;BMP280;39392;52.832;13.816;2022-11-23T08:29:06;100330.94;;;17.66
53512;BMP280;39392;52.832;13.816;2022-11-23T08:31:32;100334.47;;;17.66
53512;BMP280;39392;52.832;13.816;2022-11-23T08:33:58;100341.78;;;17.66
53512;BMP280;39392;52.832;13.816;2022-11-23T08:36:28;100349.72;;;17.67
53512;BMP280;39392;52.832;13.816;2022-11-23T08:38:55;100353.47;;;17.66
53512;BMP280;39392;52.832;13.816;2022-11-23T08:41:21;100355.31;;;17.66
53512;BMP280;39392;52.832;13.816;2022-11-23T08:43:48;100343.81;;;17.64
53512;BMP280;39392;52.832;13.816;2022-11-23T08:46:15;100337.91;;;17.60
53512;BMP280;39392;52.832;13.816;2022-11-23T08:48:42;100349.75;;;17.59
53512;BMP280;39392;52.832;13.816;2022-11-23T08:51:08;100348.91;;;17.59
53512;BMP280;39392;52.832;13.816;2022-11-23T08:53:35;100350.97;;;17.57
53512;BMP280;39392;52.832;13.816;2022-11-23T08:56:02;100355.56;;;17.56
53512;BMP280;39392;52.832;13.816;2022-11-23T08:58:29;100364.53;;;17.57
53512;BMP280;39392;52.832;13.816;2022-11-23T09:00:55;100351.13;;;17.55
53512;BMP280;39392;52.832;13.816;2022-11-23T09:03:22;100356.72;;;17.54
53512;BMP280;39392;52.832;13.816;2022-11-23T09:05:48;100354.03;;;17.54
53512;BMP280;39392;52.832;13.816;2022-11-23T09:08:16;100360.28;;;17.54
53512;BMP280;39392;52.832;13.816;2022-11-23T09:10:43;100352.16;;;17.54
53512;BMP280;39392;52.832;13.816;2022-11-23T09:13:09;100366.38;;;17.56
53512;BMP280;39392;52.832;13.816;2022-11-23T09:15:36;100375.16;;;17.58
53512;BMP280;39392;52.832;13.816;2022-11-23T09:18:02;100372.31;;;17.60
53512;BMP280;39392;52.832;13.816;2022-11-23T09:20:29;100364.19;;;17.60
53512;BMP280;39392;52.832;13.816;2022-11-23T09:22:55;100367.72;;;17.60
53512;BMP280;39392;52.832;13.816;2022-11-23T09:25:22;100364.00;;;17.61
53512;BMP280;39392;52.832;13.816;2022-11-23T09:27:52;100356.88;;;17.60
53512;BMP280;39392;52.832;13.816;2022-11-23T09:30:21;100363.31;;;17.59
53512;BMP280;39392;52.832;13.816;2022-11-23T09:32:48;100365.84;;;17.61
53512;BMP280;39392;52.832;13.816;2022-11-23T09:35:14;100366.88;;;17.60
53512;BMP280;39392;52.832;13.816;2022-11-23T09:37:41;100357.88;;;17.59
53512;BMP280;39392;52.832;13.816;2022-11-23T09:40:09;100367.72;;;17.60
53512;BMP280;39392;52.832;13.816;2022-11-23T09:42:44;100357.03;;;17.59
53512;BMP280;39392;52.832;13.816;2022-11-23T09:45:19;100347.41;;;17.56
53512;BMP280;39392;52.832;13.816;2022-11-23T09:52:41;100344.53;;;17.58
53512;BMP280;39392;52.832;13.816;2022-11-23T09:55:55;100343.50;;;17.59
53512;BMP280;39392;52.832;13.816;2022-11-23T09:57:57;100344.34;;;17.59
53512;BMP280;39392;52.832;13.816;2022-11-23T10:00:25;100351.28;;;17.62
53512;BMP280;39392;52.832;13.816;2022-11-23T10:02:52;100348.75;;;17.60
53512;BMP280;39392;52.832;13.816;2022-11-23T10:05:20;100346.19;;;17.59
53512;BMP280;39392;52.832;13.816;2022-11-23T10:07:58;100341.81;;;17.58
53512;BMP280;39392;52.832;13.816;2022-11-23T10:10:42;100337.41;;;17.57
53512;BMP280;39392;52.832;13.816;2022-11-23T10:16:37;100335.41;;;17.51
53512;BMP280;39392;52.832;13.816;2022-11-23T10:18:53;100340.50;;;17.46
53512;BMP280;39392;52.832;13.816;2022-11-23T10:26:35;100338.13;;;17.42
53512;BMP280;39392;52.832;13.816;2022-11-23T10:29:13;100340.84;;;17.42
53512;BMP280;39392;52.832;13.816;2022-11-23T10:31:45;100347.28;;;17.41
53512;BMP280;39392;52.832;13.816;2022-11-23T10:34:13;100341.88;;;17.41
53512;BMP280;39392;52.832;13.816;2022-11-23T10:36:40;100345.44;;;17.42
53512;BMP280;39392;52.832;13.816;2022-11-23T10:39:23;100340.69;;;17.44
53512;BMP280;39392;52.832;13.816;2022-11-23T10:41:50;100344.06;;;17.46
53512;BMP280;39392;52.832;13.816;2022-11-23T10:46:43;100334.06;;;17.47
53512;BMP280;39392;52.832;13.816;2022-11-23T10:49:17;100332.19;;;17.47
53512;BMP280;39392;52.832;13.816;2022-11-23T10:51:48;100330.50;;;17.46
53512;BMP280;39392;52.832;13.816;2022-11-23T10:56:51;100327.16;;;17.44
53512;BMP280;39392;52.832;13.816;2022-11-23T10:59:29;100328.00;;;17.45
53512;BMP280;39392;52.832;13.816;2022-11-23T11:02:10;100329.03;;;17.43
53512;BMP280;39392;52.832;13.816;2022-11-23T11:04:39;100333.41;;;17.45
53512;BMP280;39392;52.832;13.816;2022-11-23T11:07:09;100332.38;;;17.46
53512;BMP280;39392;52.832;13.816;2022-11-23T11:09:36;100326.78;;;17.47
53512;BMP280;39392;52.832;13.816;2022-11-23T11:12:03;100337.47;;;17.49
53512;BMP280;39392;52.832;13.816;2022-11-23T11:14:30;100334.56;;;17.50
53512;BMP280;39392;52.832;13.816;2022-11-23T11:17:09;100321.00;;;17.50
53512;BMP280;39392;52.832;13.816;2022-11-23T11:19:49;100322.69;;;17.51
53512;BMP280;39392;52.832;13.816;2022-11-23T11:22:32;100319.16;;;17.51
53512;BMP280;39392;52.832;13.816;2022-11-23T11:25:04;100323.38;;;17.53
53512;BMP280;39392;52.832;13.816;2022-11-23T11:27:32;100324.03;;;17.55
53512;BMP280;39392;52.832;13.816;2022-11-23T11:30:03;100316.78;;;17.56
53512;BMP280;39392;52.832;13.816;2022-11-23T11:32:33;100311.50;;;17.54
53512;BMP280;39392;52.832;13.816;2022-11-23T11:37:38;100309.16;;;17.51
53512;BMP280;39392;52.832;13.816;2022-11-23T11:42:36;100304.91;;;17.57
53512;BMP280;39392;52.832;13.816;2022-11-23T11:45:04;100302.00;;;17.58
53512;BMP280;39392;52.832;13.816;2022-11-23T11:47:36;100301.47;;;17.63
53512;BMP280;39392;52.832;13.816;2022-11-23T11:50:14;100303.50;;;17.69
53512;BMP280;39392;52.832;13.816;2022-11-23T11:52:44;100302.25;;;17.72
53512;BMP280;39392;52.832;13.816;2022-11-23T12:00:09;100305.44;;;17.83
53512;BMP280;39392;52.832;13.816;2022-11-23T12:02:38;100304.91;;;17.88
53512;BMP280;39392;52.832;13.816;2022-11-23T12:05:24;100307.09;;;17.92
53512;BMP280;39392;52.832;13.816;2022-11-23T12:10:20;100309.94;;;17.99
53512;BMP280;39392;52.832;13.816;2022-11-23T12:12:49;100302.44;;;18.01
53512;BMP280;39392;52.832;13.816;2022-11-23T12:15:20;100306.69;;;18.04
53512;BMP280;39392;52.832;13.816;2022-11-23T12:20:45;100304.25;;;18.09
53512;BMP280;39392;52.832;13.816;2022-11-23T12:26:07;100313.72;;;18.13
53512;BMP280;39392;52.832;13.816;2022-11-23T12:31:10;100315.03;;;18.17
53512;BMP280;39392;52.832;13.816;2022-11-23T12:39:02;100305.38;;;18.23
53512;BMP280;39392;52.832;13.816;2022-11-23T12:41:38;100312.28;;;18.25
53512;BMP280;39392;52.832;13.816;2022-11-23T12:57:07;100312.22;;;18.33
53512;BMP280;39392;52.832;13.816;2022-11-23T12:59:40;100317.44;;;18.35
53512;BMP280;39392;52.832;13.816;2022-11-23T13:02:12;100313.72;;;18.36
53512;BMP280;39392;52.832;13.816;2022-11-23T13:04:51;100320.63;;;18.38
53512;BMP280;39392;52.832;13.816;2022-11-23T13:10:33;100325.91;;;18.40
53512;BMP280;39392;52.832;13.816;2022-11-23T13:18:05;100316.38;;;18.44
53512;BMP280;39392;52.832;13.816;2022-11-23T13:23:02;100315.97;;;18.47
53512;BMP280;39392;52.832;13.816;2022-11-23T13:25:31;100306.84;;;18.48
53512;BMP280;39392;52.832;13.816;2022-11-23T13:28:44;100305.81;;;18.49
53512;BMP280;39392;52.832;13.816;2022-11-23T13:30:45;100305.81;;;18.49
53512;BMP280;39392;52.832;13.816;2022-11-23T13:33:44;100311.72;;;18.53
53512;BMP280;39392;52.832;13.816;2022-11-23T13:36:12;100316.09;;;18.54
53512;BMP280;39392;52.832;13.816;2022-11-23T13:42:16;100312.34;;;18.55
53512;BMP280;39392;52.832;13.816;2022-11-23T13:44:43;100304.22;;;18.55
53512;BMP280;39392;52.832;13.816;2022-11-23T13:54:54;100316.41;;;18.59
53512;BMP280;39392;52.832;13.816;2022-11-23T13:57:21;100319.94;;;18.59
53512;BMP280;39392;52.832;13.816;2022-11-23T13:59:48;100322.50;;;18.61
53512;BMP280;39392;52.832;13.816;2022-11-23T14:04:42;100324.19;;;18.62
53512;BMP280;39392;52.832;13.816;2022-11-23T14:07:23;100326.69;;;18.63
53512;BMP280;39392;52.832;13.816;2022-11-23T14:09:54;100332.97;;;18.64
53512;BMP280;39392;52.832;13.816;2022-11-23T14:12:32;100322.09;;;18.64
53512;BMP280;39392;52.832;13.816;2022-11-23T14:23:00;100334.47;;;18.66
53512;BMP280;39392;52.832;13.816;2022-11-23T14:35:40;100347.72;;;18.70
53512;BMP280;39392;52.832;13.816;2022-11-23T14:38:29;100345.00;;;18.70
53512;BMP280;39392;52.832;13.816;2022-11-23T14:43:32;100342.09;;;18.71
53512;BMP280;39392;52.832;13.816;2022-11-23T14:46:00;100345.84;;;18.70
53512;BMP280;39392;52.832;13.816;2022-11-23T14:48:28;100344.81;;;18.71
53512;BMP280;39392;52.832;13.816;2022-11-23T14:50:59;100346.50;;;18.72
53512;BMP280;39392;52.832;13.816;2022-11-23T14:53:27;100339.19;;;18.73
53512;BMP280;39392;52.832;13.816;2022-11-23T14:55:55;100339.19;;;18.73
53512;BMP280;39392;52.832;13.816;2022-11-23T14:58:22;100347.16;;;18.74
53512;BMP280;39392;52.832;13.816;2022-11-23T15:00:51;100344.25;;;18.76
53512;BMP280;39392;52.832;13.816;2022-11-23T15:03:19;100340.72;;;18.75
53512;BMP280;39392;52.832;13.816;2022-11-23T15:06:15;100344.25;;;18.76
53512;BMP280;39392;52.832;13.816;2022-11-23T15:08:52;100346.13;;;18.75
53512;BMP280;39392;52.832;13.816;2022-11-23T15:11:22;100341.38;;;18.77
53512;BMP280;39392;52.832;13.816;2022-11-23T15:13:51;100339.66;;;18.76
53512;BMP280;39392;52.832;13.816;2022-11-23T15:16:18;100346.81;;;18.77
53512;BMP280;39392;52.832;13.816;2022-11-23T15:18:45;100353.91;;;18.78
53512;BMP280;39392;52.832;13.816;2022-11-23T15:23:42;100357.66;;;18.77
53512;BMP280;39392;52.832;13.816;2022-11-23T15:26:26;100358.50;;;18.78
53512;BMP280;39392;52.832;13.816;2022-11-23T15:29:32;100356.63;;;18.78
53512;BMP280;39392;52.832;13.816;2022-11-23T15:32:00;100359.34;;;18.78
53512;BMP280;39392;52.832;13.816;2022-11-23T15:34:47;100372.94;;;18.78
53512;BMP280;39392;52.832;13.816;2022-11-23T15:37:15;100369.16;;;18.79
53512;BMP280;39392;52.832;13.816;2022-11-23T15:39:42;100367.50;;;18.78
53512;BMP280;39392;52.832;13.816;2022-11-23T15:42:14;100374.59;;;18.79